Change the Weather History Date:

Monday, December 3, 2012

  Actual Average Record
Temperature  
Mean Temperature 35 °F -  
Max Temperature 42 °F 42 °F 64 °F (1939)
Min Temperature 28 °F 23 °F 3 °F (1934)
Degree Days  
Heating Degree Days 30    
Moisture  
Dew Point 29 °F    
Average Humidity 74    
Maximum Humidity 93    
Minimum Humidity 53    
Precipitation  
Precipitation 0.00 in - - ()
Sea Level Pressure  
Sea Level Pressure 30.11 in    
Wind  
Wind Speed 10 mph (SSE)    
Max Wind Speed 28 mph    
Max Gust Speed 40 mph    
Visibility 10 miles    
Events      
Averages and records for this station are not official NWS values.
T = Trace of Precipitation, MM = Missing Value Source: NWS Daily Summary

Daily Weather History Graph

Daily Weather History Graph

Search for Another Location

Airport or City:

Trip Planner

Search our weather history database for the weather conditions in past years. The results will help you decide how hot, cold, wet, or windy it might be!

Date:

Astronomy

Dec. 03, 2012 Rise Set
Actual Time 7:13 AM PST 4:29 PM PST
Civil Twilight 6:41 AM PST 5:01 PM PST
Nautical Twilight 6:06 AM PST 5:36 PM PST
Astronomical Twilight 5:33 AM PST 6:10 PM PST
Moon 9:24 PM PST (12/3) 10:36 AM PST (12/3)
Length of Visible Light 10h 19m
Length of Day
9h 16m
Waning Gibbous, 77% of the Moon is Illuminated
Dec 3
Waning Gibbous
Dec 6
Last Quarter
Dec 13
New
Dec 19
First Quarter
Dec 28
Full

Hourly Weather History & Observations

Time (PST) Temp. Windchill Dew Point Humidity Pressure Visibility Wind Dir Wind Speed Gust Speed Precip Events Conditions
12:15 AM 33.8 °F 26.4 °F 30.2 °F 87% 30.06 in 10.0 mi SSE 9.2 mph - N/A   Overcast
12:35 AM 33.8 °F 27.0 °F 28.4 °F 81% 30.06 in 10.0 mi SSE 8.1 mph - N/A   Overcast
12:55 AM 33.8 °F 26.4 °F 28.4 °F 81% 30.05 in 10.0 mi South 9.2 mph - N/A   Mostly Cloudy
1:15 AM 33.8 °F 26.4 °F 28.4 °F 81% 30.06 in 10.0 mi SSE 9.2 mph - N/A   Mostly Cloudy
1:35 AM 33.8 °F 25.8 °F 28.4 °F 81% 30.06 in 10.0 mi SSE 10.4 mph - N/A   Mostly Cloudy
1:55 AM 32.0 °F 24.2 °F 28.4 °F 87% 30.07 in 10.0 mi SSE 9.2 mph - N/A   Mostly Cloudy
2:15 AM 33.8 °F 27.7 °F 28.4 °F 81% 30.08 in 10.0 mi SE 6.9 mph - N/A   Overcast
2:35 AM 33.8 °F 24.8 °F 28.4 °F 81% 30.08 in 10.0 mi SE 12.7 mph - N/A   Overcast
2:55 AM 33.8 °F 25.8 °F 26.6 °F 75% 30.08 in 10.0 mi SSE 10.4 mph - N/A   Overcast
3:15 AM 33.8 °F 25.3 °F 28.4 °F 81% 30.08 in 10.0 mi SSE 11.5 mph - N/A   Overcast
3:35 AM 32.0 °F 23.0 °F 26.6 °F 80% 30.09 in 10.0 mi SSE 11.5 mph - N/A   Overcast
3:55 AM 32.0 °F 25.6 °F 26.6 °F 80% 30.09 in 10.0 mi South 6.9 mph - N/A   Overcast
4:15 AM 32.0 °F 28.7 °F 26.6 °F 80% 30.10 in 10.0 mi SSE 3.5 mph - N/A   Overcast
4:35 AM 30.2 °F 23.4 °F 26.6 °F 86% 30.11 in 10.0 mi SSE 6.9 mph - N/A   Mostly Cloudy
4:55 AM 30.2 °F 21.9 °F 26.6 °F 86% 30.11 in 10.0 mi SSE 9.2 mph - N/A   Clear
5:15 AM 30.2 °F 21.9 °F 26.6 °F 86% 30.11 in 10.0 mi SSE 9.2 mph - N/A   Partly Cloudy
5:35 AM 30.2 °F 22.6 °F 26.6 °F 86% 30.11 in 10.0 mi South 8.1 mph - N/A   Clear
5:55 AM 30.2 °F 22.6 °F 26.6 °F 86% 30.12 in 10.0 mi SSE 8.1 mph - N/A   Clear
6:15 AM 30.2 °F 21.9 °F 26.6 °F 86% 30.12 in 10.0 mi South 9.2 mph - N/A   Clear
6:35 AM 30.2 °F 22.6 °F 26.6 °F 86% 30.12 in 10.0 mi South 8.1 mph - N/A   Clear
7:15 AM 28.4 °F 22.2 °F 24.8 °F 86% 30.15 in 10.0 mi East 5.8 mph - N/A   Clear
7:35 AM 28.4 °F 23.3 °F 26.6 °F 93% 30.15 in 10.0 mi SE 4.6 mph - N/A   Partly Cloudy
7:55 AM 30.2 °F 26.7 °F 26.6 °F 86% 30.15 in 10.0 mi South 3.5 mph - N/A   Clear
8:15 AM 30.2 °F 24.3 °F 28.4 °F 93% 30.16 in 10.0 mi South 5.8 mph - N/A   Clear
8:35 AM 33.8 °F 27.0 °F 28.4 °F 81% 30.16 in 10.0 mi South 8.1 mph - N/A   Clear
8:55 AM 33.8 °F 27.0 °F 28.4 °F 81% 30.16 in 10.0 mi South 8.1 mph - N/A   Clear
9:15 AM 33.8 °F 27.7 °F 28.4 °F 81% 30.16 in 10.0 mi South 6.9 mph - N/A   Clear
9:35 AM 35.6 °F 29.2 °F 30.2 °F 81% 30.17 in 10.0 mi South 8.1 mph - N/A   Clear
9:55 AM 37.4 °F 30.3 °F 28.4 °F 70% 30.17 in 10.0 mi South 10.4 mph - N/A   Scattered Clouds
10:15 AM 37.4 °F 30.8 °F 28.4 °F 70% 30.18 in 10.0 mi South 9.2 mph - N/A   Mostly Cloudy
10:35 AM 37.4 °F 30.8 °F 30.2 °F 75% 30.18 in 10.0 mi South 9.2 mph - N/A   Mostly Cloudy
10:55 AM 39.2 °F 32.0 °F 30.2 °F 70% 30.17 in 10.0 mi South 11.5 mph - N/A   Mostly Cloudy
11:15 AM 37.4 °F 29.3 °F 30.2 °F 75% 30.17 in 10.0 mi SSE 12.7 mph - N/A   Mostly Cloudy
11:35 AM 41.0 °F 33.1 °F 30.2 °F 65% 30.15 in 10.0 mi SSE 15.0 mph - N/A   Overcast
11:55 AM 41.0 °F 33.9 °F 32.0 °F 70% 30.14 in 10.0 mi SSE 12.7 mph 17.3 mph N/A   Scattered Clouds
12:15 PM 42.8 °F 35.4 °F 30.2 °F 61% 30.14 in 10.0 mi South 15.0 mph - N/A   Clear
12:35 PM 39.2 °F 32.5 °F 28.4 °F 65% 30.13 in 10.0 mi SSE 10.4 mph - N/A   Clear
12:55 PM 42.8 °F 35.8 °F 28.4 °F 57% 30.12 in 10.0 mi SSE 13.8 mph - N/A   Clear
1:15 PM 39.2 °F 31.6 °F 28.4 °F 65% 30.12 in 10.0 mi SSE 12.7 mph - N/A   Clear
1:35 PM 39.2 °F 32.0 °F 28.4 °F 65% 30.11 in 10.0 mi South 11.5 mph - N/A   Partly Cloudy
1:55 PM 39.2 °F 32.0 °F 28.4 °F 65% 30.12 in 10.0 mi South 11.5 mph - N/A   Scattered Clouds
2:15 PM 41.0 °F 34.3 °F 28.4 °F 61% 30.12 in 10.0 mi South 11.5 mph - N/A   Partly Cloudy
2:35 PM 41.0 °F 34.3 °F 28.4 °F 61% 30.13 in 10.0 mi South 11.5 mph - N/A   Mostly Cloudy
2:55 PM 41.0 °F 33.9 °F 28.4 °F 61% 30.13 in 10.0 mi South 12.7 mph - N/A   Mostly Cloudy
3:15 PM 41.0 °F 35.2 °F 28.4 °F 61% 30.13 in 10.0 mi South 9.2 mph - N/A   Scattered Clouds
3:35 PM 41.0 °F 35.2 °F 30.2 °F 65% 30.12 in 10.0 mi South 9.2 mph - N/A   Partly Cloudy
3:55 PM 39.2 °F 33.6 °F 30.2 °F 70% 30.12 in 10.0 mi South 8.1 mph - N/A   Clear
4:15 PM 39.2 °F 33.0 °F 30.2 °F 70% 30.12 in 10.0 mi South 9.2 mph - N/A   Mostly Cloudy
4:35 PM 39.2 °F 33.0 °F 30.2 °F 70% 30.11 in 10.0 mi South 9.2 mph - N/A   Scattered Clouds
4:55 PM 37.4 °F 30.8 °F 32.0 °F 81% 30.10 in 10.0 mi SE 9.2 mph - N/A   Mostly Cloudy
5:15 PM 37.4 °F 31.4 °F 30.2 °F 75% 30.10 in 10.0 mi SE 8.1 mph - N/A   Scattered Clouds
5:35 PM 35.6 °F 29.9 °F 30.2 °F 81% 30.10 in 10.0 mi SE 6.9 mph - N/A   Scattered Clouds
5:55 PM 35.6 °F 31.7 °F 28.4 °F 75% 30.10 in 10.0 mi SSE 4.6 mph - N/A   Scattered Clouds
6:15 PM 37.4 °F 30.3 °F 30.2 °F 75% 30.10 in 10.0 mi SSE 10.4 mph - N/A   Mostly Cloudy
6:35 PM 37.4 °F 30.3 °F 28.4 °F 70% 30.10 in 10.0 mi SSE 10.4 mph - N/A   Mostly Cloudy
6:55 PM 37.4 °F 30.3 °F 30.2 °F 75% 30.10 in 10.0 mi SSE 10.4 mph - N/A   Mostly Cloudy
7:15 PM 37.4 °F 32.8 °F 28.4 °F 70% 30.09 in 10.0 mi SE 5.8 mph - N/A   Overcast
7:35 PM 37.4 °F 30.8 °F 30.2 °F 75% 30.08 in 10.0 mi SSE 9.2 mph - N/A   Overcast
7:55 PM 37.4 °F 30.3 °F 30.2 °F 75% 30.08 in 10.0 mi South 10.4 mph - N/A   Overcast
8:15 PM 39.2 °F 33.0 °F 32.0 °F 75% 30.07 in 10.0 mi SSE 9.2 mph - N/A   Overcast
8:35 PM 39.2 °F 31.6 °F 30.2 °F 70% 30.06 in 10.0 mi South 12.7 mph 18.4 mph N/A   Overcast
8:55 PM 39.2 °F 29.8 °F 28.4 °F 65% 30.07 in 10.0 mi South 18.4 mph 28.8 mph N/A   Overcast
9:15 PM 39.2 °F 27.8 °F 26.6 °F 61% 30.07 in 10.0 mi SSW 27.6 mph 40.3 mph N/A   Overcast
9:35 PM 41.0 °F 33.1 °F 24.8 °F 53% 30.06 in 10.0 mi SSW 15.0 mph 32.2 mph N/A   Overcast
9:55 PM 39.2 °F 31.6 °F 28.4 °F 65% 30.06 in 10.0 mi South 12.7 mph - N/A   Overcast
10:15 PM 39.2 °F 30.2 °F 28.4 °F 65% 30.05 in 10.0 mi South 17.3 mph - N/A   Overcast
10:35 PM 39.2 °F 29.6 °F 28.4 °F 65% 30.03 in 10.0 mi South 19.6 mph 26.5 mph N/A   Overcast
10:55 PM 39.2 °F 30.2 °F 28.4 °F 65% 30.03 in 10.0 mi South 17.3 mph 26.5 mph N/A   Overcast
11:15 PM 41.0 °F 30.7 °F 28.4 °F 61% 30.04 in 10.0 mi South 25.3 mph 31.1 mph N/A   Overcast
11:35 PM 39.2 °F 30.2 °F 28.4 °F 65% 30.04 in 10.0 mi South 17.3 mph 27.6 mph N/A   Overcast
11:55 PM 39.2 °F 30.5 °F 28.4 °F 65% 30.04 in 10.0 mi South 16.1 mph - N/A   Overcast